Accueil
METAR-TAF:

METAR-TAF

Aéroports :

Payerne, Suisse

Aérodrome de Payerne

latitude: 46-49N, longitude: 006-57E, altitude: 490 m

Observation

Le bulletin a été fait il y a 1 heure et 9 minutes, à 07:50 UTC
Vent 5 kt de nord/nord-ouest, variant entre nord-ouest et nord/nord-est
Température 4°C
Humidité 75%
Pression 1014 hPa
Visibilité 10 km ou plus
Nuages épars à une hauteur de 2400 ft
Nuages fragmentés à une hauteur de 3100 ft
faibles averses de pluie

METAR: LSMP 270750Z 34005KT 310V020 9999 -SHRA SCT024 BKN031 04/00 Q1014 RMK BLU

Heure: 10:59 (08:59 UTC)


TAF: absent

Observations et prévisions météorologiques de plus de 4000 aéroports (messages METAR et TAF).

Les stations disponibles sont représentées par des disques jaunes et rouges sur la carte.

Passer la souris dessus pour voir le nom de la station.

Cliquer dessus pour voir les observations et prévisions météorologiques.

Pour changer de carte: cliquez sur les boutons verts avec une croix noire pour zoomer, sur le bouton vert avec un tiret pour effectuer un zoom arrière, ou sur les flèches vertes pour les cartes adjacentes.


METAR-TAF: